Weather History for Knoxville, IA

Change the Weather History Date:

Thursday, December 20, 2012

  Actual Average Record
Temperature  
Mean Temperature 24 °F -  
Max Temperature 32 °F 31 °F 57 °F (1967)
Min Temperature 15 °F 14 °F -14 °F (1983)
Degree Days  
Heating Degree Days 42    
Moisture  
Dew Point 20 °F    
Average Humidity 80    
Maximum Humidity 87    
Minimum Humidity 73    
Precipitation  
Precipitation 0.01 in - - ()
Sea Level Pressure  
Sea Level Pressure 29.71 in    
Wind  
Wind Speed 23 mph (NW)    
Max Wind Speed 39 mph    
Max Gust Speed 51 mph    
Visibility 5 miles    
Events Snow    
Averages and records for this station are not official NWS values.
T = Trace of Precipitation, MM = Missing Value Source: NWS Daily Summary

Daily Weather History Graph

Daily Weather History Graph

Search for Another Location

Airport:

Trip Planner

Search our weather history database for the weather conditions in past years. The results will help you decide how hot, cold, wet, or windy it might be!

Date:

Astronomy

Dec. 20, 2012 Rise Set
Actual Time 7:34 AM CST 4:46 PM CST
Civil Twilight 7:03 AM CST 5:17 PM CST
Nautical Twilight 6:28 AM CST 5:52 PM CST
Astronomical Twilight 5:54 AM CST 6:25 PM CST
Moon 12:07 PM CST (12/20) 12:18 AM CST (12/20)
Length of Visible Light 10h 14m
Length of Day
9h 11m
First Quarter, 55% of the Moon is Illuminated
Dec 20
First Quarter
Dec 28
Full
Jan 4
Last Quarter
Jan 11
New
Jan 18
First Quarter

Hourly Weather History & Observations

Time (CST) Temp. Windchill Dew Point Humidity Pressure Visibility Wind Dir Wind Speed Gust Speed Precip Events Conditions
12:15 AM 32.0 °F 20.8 °F 28.4 °F 87% 29.58 in 5.0 mi NNE 17.3 mph 26.5 mph N/A Snow Light Snow
12:35 AM 32.0 °F 21.6 °F 28.4 °F 87% 29.57 in 7.0 mi NE 15.0 mph 26.5 mph N/A   Overcast
12:55 AM 32.0 °F 21.2 °F 28.4 °F 87% 29.58 in 7.0 mi NE 16.1 mph 25.3 mph N/A Snow Light Snow
1:15 AM 32.0 °F 20.1 °F 28.4 °F 87% 29.56 in 1.0 mi NNE 19.6 mph 25.3 mph N/A Snow Light Snow
1:35 AM 32.0 °F 20.1 °F 28.4 °F 87% 29.53 in 0.8 mi North 19.6 mph 29.9 mph N/A Snow Snow
1:55 AM 32.0 °F 20.8 °F 28.4 °F 87% 29.55 in 2.0 mi North 17.3 mph 26.5 mph N/A Snow Light Snow
2:15 AM 32.0 °F 21.2 °F 28.4 °F 87% 29.55 in 3.0 mi NNE 16.1 mph 27.6 mph N/A Snow Light Snow
2:35 AM 32.0 °F 19.8 °F 28.4 °F 87% 29.54 in 1.8 mi North 20.7 mph 28.8 mph N/A Snow Light Snow
2:55 AM 32.0 °F 18.9 °F 28.4 °F 87% 29.53 in 3.0 mi North 24.2 mph 34.5 mph N/A Snow Light Snow
3:15 AM 32.0 °F 20.1 °F 28.4 °F 87% 29.51 in 2.0 mi North 19.6 mph 29.9 mph 0.01 in Snow Light Snow
3:35 AM 32.0 °F 20.5 °F 28.4 °F 87% 29.50 in 1.8 mi North 18.4 mph 31.1 mph 0.01 in Snow Light Snow
3:55 AM 32.0 °F 19.5 °F 28.4 °F 87% 29.49 in 1.5 mi North 21.9 mph 32.2 mph 0.01 in Snow Light Snow
4:15 AM 32.0 °F 19.2 °F 28.4 °F 87% 29.48 in 1.0 mi North 23.0 mph 34.5 mph N/A Snow Light Snow
4:35 AM 32.0 °F 18.6 °F 28.4 °F 87% 29.47 in 1.5 mi North 25.3 mph 36.8 mph N/A Snow Light Snow
4:55 AM 32.0 °F 19.5 °F 28.4 °F 87% 29.48 in 2.0 mi North 21.9 mph 34.5 mph N/A Snow Light Snow
5:15 AM 32.0 °F 19.2 °F 28.4 °F 87% 29.49 in 3.0 mi North 23.0 mph 34.5 mph N/A Snow Light Snow
5:35 AM 32.0 °F 17.4 °F 28.4 °F 87% 29.47 in 1.2 mi North 31.1 mph 41.4 mph N/A Snow Light Snow
5:55 AM 32.0 °F 18.4 °F 26.6 °F 80% 29.46 in 1.5 mi North 26.5 mph 39.1 mph N/A Snow Light Snow
6:15 AM 32.0 °F 17.9 °F 26.6 °F 80% 29.47 in 1.5 mi North 28.8 mph 35.7 mph N/A Snow Light Snow
6:35 AM 32.0 °F 17.9 °F 26.6 °F 80% 29.47 in 1.8 mi North 28.8 mph 43.7 mph N/A Snow Light Snow
6:55 AM 30.2 °F 14.7 °F 26.6 °F 86% 29.48 in 1.2 mi North 32.2 mph 39.1 mph N/A Snow Light Snow
7:15 AM 30.2 °F 15.4 °F 26.6 °F 86% 29.49 in 1.2 mi NNW 28.8 mph 39.1 mph N/A Snow Light Snow
7:35 AM 30.2 °F 14.1 °F 24.8 °F 80% 29.50 in 1.5 mi NNW 35.7 mph 44.9 mph N/A Snow Light Snow
7:55 AM 28.4 °F 11.8 °F 24.8 °F 86% 29.51 in 0.5 mi NNW 34.5 mph 44.9 mph N/A Snow Snow
8:15 AM 28.4 °F 11.4 °F 24.8 °F 86% 29.52 in 0.5 mi NNW 36.8 mph 50.6 mph N/A Snow Light Snow
8:35 AM 28.4 °F 11.0 °F 23.0 °F 80% 29.54 in 0.5 mi NNW 39.1 mph 44.9 mph N/A Snow Light Snow
8:55 AM 26.6 °F 9.1 °F 21.2 °F 80% 29.56 in 0.5 mi NNW 35.7 mph 46.0 mph N/A Snow Light Snow
9:15 AM 26.6 °F 9.8 °F 21.2 °F 80% 29.57 in 0.5 mi NNW 32.2 mph 46.0 mph N/A Snow Light Snow
9:35 AM 26.6 °F 8.9 °F 21.2 °F 80% 29.58 in 0.5 mi NNW 36.8 mph 48.3 mph N/A Snow Light Snow
9:55 AM 26.6 °F 9.6 °F 21.2 °F 80% 29.60 in 0.5 mi NNW 33.4 mph 41.4 mph N/A Snow Light Snow
10:15 AM 26.6 °F 10.0 °F 21.2 °F 80% 29.62 in 0.8 mi NNW 31.1 mph 42.6 mph N/A Snow Light Snow
10:35 AM 24.8 °F 7.3 °F 19.4 °F 80% 29.63 in 0.8 mi NW 32.2 mph 44.9 mph N/A Snow Light Snow
10:55 AM 24.8 °F 7.3 °F 19.4 °F 80% 29.63 in 0.8 mi NNW 32.2 mph 43.7 mph N/A Snow Light Snow
11:15 AM 24.8 °F 7.6 °F 19.4 °F 80% 29.64 in 0.8 mi NW 31.1 mph 46.0 mph N/A Snow Light Snow
11:35 AM 24.8 °F 7.3 °F 19.4 °F 80% 29.65 in 0.8 mi NW 32.2 mph 42.6 mph N/A Snow Light Snow
11:55 AM 24.8 °F 9.6 °F 19.4 °F 80% 29.65 in 0.8 mi NW 23.0 mph 44.9 mph N/A Snow Light Snow
12:15 PM 24.8 °F 7.9 °F 19.4 °F 80% 29.66 in 2.5 mi NW 29.9 mph 40.3 mph N/A   Haze
12:35 PM 24.8 °F 7.6 °F 19.4 °F 80% 29.68 in 1.8 mi NW 31.1 mph 47.2 mph N/A   Haze
12:55 PM 24.8 °F 6.2 °F 17.6 °F 74% 29.69 in 1.0 mi NW 38.0 mph 49.5 mph N/A Snow Light Snow
1:15 PM 24.8 °F 7.6 °F 17.6 °F 74% 29.70 in 1.8 mi NW 31.1 mph 43.7 mph N/A Snow Light Snow
1:35 PM 24.8 °F 6.4 °F 17.6 °F 74% 29.72 in 2.0 mi NW 36.8 mph 48.3 mph N/A   Haze
1:55 PM 23.0 °F 3.7 °F 17.6 °F 80% 29.73 in 1.8 mi NW 38.0 mph 47.2 mph N/A Snow Light Snow
2:15 PM 24.8 °F 7.1 °F 17.6 °F 74% 29.75 in 2.5 mi NW 33.4 mph 42.6 mph N/A   Haze
2:35 PM 24.8 °F 7.6 °F 17.6 °F 74% 29.76 in 4.0 mi NW 31.1 mph 42.6 mph N/A   Haze
2:55 PM 24.8 °F 9.6 °F 17.6 °F 74% 29.78 in 7.0 mi WNW 23.0 mph 35.7 mph N/A   Overcast
3:15 PM 23.0 °F 6.6 °F 17.6 °F 80% 29.80 in 7.0 mi NW 25.3 mph 40.3 mph N/A   Overcast
3:35 PM 23.0 °F 6.6 °F 15.8 °F 74% 29.81 in 7.0 mi NW 25.3 mph 38.0 mph N/A   Overcast
3:55 PM 21.2 °F 5.6 °F 15.8 °F 80% 29.83 in 7.0 mi NW 20.7 mph 41.4 mph N/A   Overcast
4:15 PM 21.2 °F 6.0 °F 15.8 °F 80% 29.85 in 10.0 mi NW 19.6 mph 29.9 mph N/A   Mostly Cloudy
4:35 PM 21.2 °F 5.6 °F 15.8 °F 80% 29.86 in 10.0 mi NW 20.7 mph 34.5 mph N/A   Overcast
4:55 PM 21.2 °F 5.2 °F 15.8 °F 80% 29.87 in 10.0 mi NW 21.9 mph 31.1 mph N/A   Overcast
5:15 PM 21.2 °F 5.2 °F 15.8 °F 80% 29.88 in 10.0 mi WNW 21.9 mph 31.1 mph N/A   Mostly Cloudy
5:35 PM 21.2 °F 4.9 °F 15.8 °F 80% 29.89 in 10.0 mi WNW 23.0 mph 29.9 mph N/A   Scattered Clouds
5:55 PM 21.2 °F 6.0 °F 15.8 °F 80% 29.90 in 10.0 mi WNW 19.6 mph 33.4 mph N/A   Clear
6:15 PM 21.2 °F 4.5 °F 15.8 °F 80% 29.91 in 10.0 mi WNW 24.2 mph 29.9 mph N/A   Clear
6:35 PM 21.2 °F 6.0 °F 15.8 °F 80% 29.93 in 10.0 mi WNW 19.6 mph 28.8 mph N/A   Clear
6:55 PM 21.2 °F 5.2 °F 14.0 °F 74% 29.94 in 10.0 mi WNW 21.9 mph 31.1 mph N/A   Clear
7:15 PM 19.4 °F 1.8 °F 14.0 °F 80% 29.94 in 10.0 mi WNW 25.3 mph 33.4 mph N/A   Clear
7:35 PM 19.4 °F 3.2 °F 12.2 °F 74% 29.95 in 10.0 mi WNW 20.7 mph 32.2 mph N/A   Clear
7:55 PM 19.4 °F 2.1 °F 12.2 °F 74% 29.96 in 10.0 mi WNW 24.2 mph 32.2 mph N/A   Clear
8:15 PM 19.4 °F 2.1 °F 12.2 °F 74% 29.97 in 10.0 mi WNW 24.2 mph 31.1 mph N/A   Clear
8:35 PM 19.4 °F 2.8 °F 12.2 °F 74% 29.98 in 10.0 mi WNW 21.9 mph 32.2 mph N/A   Clear
8:55 PM 17.6 °F 1.3 °F 12.2 °F 79% 29.99 in 10.0 mi WNW 19.6 mph 29.9 mph N/A   Clear
9:15 PM 17.6 °F 2.7 °F 12.2 °F 79% 29.99 in 10.0 mi WNW 16.1 mph - N/A   Clear
9:35 PM 17.6 °F 2.7 °F 10.4 °F 73% 30.00 in 10.0 mi West 16.1 mph 26.5 mph N/A   Clear
9:55 PM 17.6 °F 1.7 °F 10.4 °F 73% 30.01 in 10.0 mi West 18.4 mph - N/A   Clear
10:15 PM 17.6 °F 1.7 °F 10.4 °F 73% 30.01 in 10.0 mi WNW 18.4 mph 25.3 mph N/A   Clear
10:35 PM 15.8 °F -1.1 °F 10.4 °F 79% 30.02 in 10.0 mi WNW 19.6 mph 23.0 mph N/A   Clear
10:55 PM 15.8 °F -0.2 °F 10.4 °F 79% 30.03 in 10.0 mi West 17.3 mph - N/A   Clear
11:15 PM 15.8 °F -0.2 °F 10.4 °F 79% 30.04 in 10.0 mi West 17.3 mph 23.0 mph N/A   Clear
11:35 PM 15.8 °F -0.2 °F 8.6 °F 73% 30.04 in 10.0 mi West 17.3 mph - N/A   Clear
11:55 PM 15.8 °F -0.2 °F 8.6 °F 73% 30.05 in 10.0 mi West 17.3 mph 23.0 mph N/A   Clear